createdAt,value
2022-08-30T00:01:03.122Z,2.85
2022-08-30T00:03:34.968Z,2.85
2022-08-30T00:06:01.720Z,2.97
2022-08-30T00:08:28.599Z,3.03
2022-08-30T00:10:55.492Z,3.17
2022-08-30T00:13:23.404Z,3.50
2022-08-30T00:15:50.654Z,2.70
2022-08-30T00:18:18.776Z,3.17
2022-08-30T00:20:47.091Z,3.58
2022-08-30T00:23:14.137Z,2.90
2022-08-30T00:25:41.294Z,3.08
2022-08-30T00:28:08.032Z,3.08
2022-08-30T00:30:34.684Z,3.30
2022-08-30T00:33:01.626Z,2.83
2022-08-30T00:35:28.810Z,2.92
2022-08-30T00:37:55.469Z,3.45
2022-08-30T00:40:27.334Z,3.47
2022-08-30T00:42:58.813Z,3.20
2022-08-30T00:45:32.398Z,3.67
2022-08-30T00:47:59.831Z,3.42
2022-08-30T00:50:31.766Z,2.92
2022-08-30T00:53:04.558Z,2.85
2022-08-30T00:55:31.340Z,3.17
2022-08-30T00:58:00.823Z,2.92
2022-08-30T01:00:29.403Z,2.88
2022-08-30T01:02:56.277Z,3.00
2022-08-30T01:05:23.959Z,3.33
2022-08-30T01:07:51.230Z,3.47
2022-08-30T01:10:18.017Z,3.33
2022-08-30T01:12:45.164Z,3.15
2022-08-30T01:15:14.546Z,2.85
2022-08-30T01:17:45.325Z,3.33
2022-08-30T01:20:15.982Z,3.08
2022-08-30T01:22:49.518Z,3.17
2022-08-30T01:25:22.908Z,3.28
2022-08-30T01:27:52.627Z,3.45
2022-08-30T01:30:19.648Z,3.33
2022-08-30T01:32:47.961Z,3.30
2022-08-30T01:35:17.052Z,3.50
2022-08-30T01:37:44.697Z,3.58
2022-08-30T01:40:13.238Z,3.53
2022-08-30T01:42:39.969Z,3.80
2022-08-30T01:45:08.484Z,3.15
2022-08-30T01:47:35.461Z,3.33
2022-08-30T01:50:02.114Z,3.28
2022-08-30T01:52:28.795Z,3.42
2022-08-30T01:54:55.419Z,3.58
2022-08-30T01:57:23.836Z,3.60
2022-08-30T01:59:50.590Z,3.78
2022-08-30T02:02:20.632Z,3.20
2022-08-30T02:04:47.371Z,3.65
2022-08-30T02:07:14.043Z,3.83
2022-08-30T02:09:44.215Z,3.78
2022-08-30T02:12:12.999Z,3.33
2022-08-30T02:14:40.021Z,3.50
2022-08-30T02:17:08.865Z,3.72
2022-08-30T02:19:35.746Z,3.90
2022-08-30T02:22:02.797Z,3.20
2022-08-30T02:24:29.447Z,3.53
2022-08-30T02:26:56.195Z,3.60
2022-08-30T02:29:23.910Z,3.22
2022-08-30T02:31:50.731Z,3.13
2022-08-30T02:34:17.845Z,3.50
2022-08-30T02:36:45.385Z,3.35
2022-08-30T02:39:13.456Z,3.72
2022-08-30T02:41:40.804Z,3.40
2022-08-30T02:44:07.987Z,4.00
2022-08-30T02:46:34.875Z,3.70
2022-08-30T02:49:13.198Z,3.42
2022-08-30T02:51:49.087Z,3.50
2022-08-30T02:54:19.865Z,3.78
2022-08-30T02:56:47.943Z,3.55
2022-08-30T02:59:16.142Z,3.35
2022-08-30T03:01:42.969Z,3.60
2022-08-30T03:04:09.929Z,3.72
2022-08-30T03:06:36.797Z,3.80
2022-08-30T03:09:03.924Z,3.25
2022-08-30T03:11:30.839Z,3.92
2022-08-30T03:13:57.520Z,3.30
2022-08-30T03:16:24.327Z,3.45
2022-08-30T03:18:50.975Z,3.30
2022-08-30T03:21:17.964Z,3.60
2022-08-30T03:23:44.878Z,3.90
2022-08-30T03:26:14.843Z,3.47
2022-08-30T03:28:42.901Z,3.35
2022-08-30T03:31:10.065Z,3.80
2022-08-30T03:33:37.106Z,3.05
2022-08-30T03:36:06.373Z,3.30
2022-08-30T03:38:33.334Z,3.75
2022-08-30T03:41:00.158Z,3.47
2022-08-30T03:43:27.038Z,3.30
2022-08-30T03:45:53.833Z,3.33
2022-08-30T03:48:20.631Z,3.35
2022-08-30T03:50:47.287Z,4.00
2022-08-30T03:53:14.006Z,3.45
2022-08-30T03:55:40.725Z,3.42
2022-08-30T03:58:12.783Z,3.08
2022-08-30T04:00:45.739Z,3.30
2022-08-30T04:03:12.433Z,3.22
2022-08-30T04:05:39.345Z,3.60
2022-08-30T04:08:06.358Z,3.28
2022-08-30T04:10:33.059Z,2.90
2022-08-30T04:12:59.722Z,3.00
2022-08-30T04:15:26.367Z,2.80
2022-08-30T04:17:54.969Z,2.40
2022-08-30T04:20:21.620Z,2.65
2022-08-30T04:22:48.253Z,2.08
2022-08-30T04:25:15.913Z,2.33
2022-08-30T04:27:44.012Z,2.20
2022-08-30T04:30:12.204Z,2.20
2022-08-30T04:32:40.271Z,2.45
2022-08-30T04:35:07.262Z,2.00
2022-08-30T04:37:33.960Z,2.15
2022-08-30T04:40:00.836Z,2.38
2022-08-30T04:42:31.911Z,2.15
2022-08-30T04:45:00.230Z,2.00
2022-08-30T04:47:27.045Z,1.80
2022-08-30T04:49:54.109Z,1.80
2022-08-30T04:52:20.775Z,1.90
2022-08-30T04:54:47.442Z,1.90
2022-08-30T04:57:14.185Z,2.00
2022-08-30T04:59:40.827Z,1.73
2022-08-30T05:02:07.645Z,1.60
2022-08-30T05:04:34.316Z,1.80
2022-08-30T05:07:01.278Z,1.55
2022-08-30T05:09:27.998Z,1.30
2022-08-30T05:11:55.059Z,1.50
2022-08-30T05:14:21.727Z,1.30
2022-08-30T05:16:48.442Z,1.63
2022-08-30T05:19:15.146Z,1.40
2022-08-30T05:21:41.889Z,1.48
2022-08-30T05:24:08.609Z,1.30
2022-08-30T05:26:37.923Z,1.05
2022-08-30T05:29:04.771Z,1.40
2022-08-30T05:31:34.237Z,1.35
2022-08-30T05:34:01.801Z,1.20
2022-08-30T05:36:29.884Z,1.60
2022-08-30T05:38:56.767Z,1.30
2022-08-30T05:41:26.539Z,0.90
2022-08-30T05:43:55.586Z,0.75
2022-08-30T05:46:22.661Z,0.88
2022-08-30T05:48:50.194Z,0.90
2022-08-30T05:51:19.496Z,0.88
2022-08-30T05:53:46.858Z,0.85
2022-08-30T05:56:15.852Z,0.90
2022-08-30T05:58:43.443Z,1.00
2022-08-30T06:01:26.585Z,0.80
2022-08-30T06:03:56.930Z,0.98
2022-08-30T06:06:25.034Z,1.10
2022-08-30T06:08:52.947Z,0.80
2022-08-30T06:11:22.409Z,1.10
2022-08-30T06:13:49.882Z,1.00
2022-08-30T06:16:18.612Z,0.90
2022-08-30T06:18:45.926Z,0.82
2022-08-30T06:21:20.706Z,0.82
2022-08-30T06:23:47.541Z,1.00
2022-08-30T06:26:14.348Z,0.90
2022-08-30T06:28:40.986Z,1.00
2022-08-30T06:31:08.980Z,0.70
2022-08-30T06:33:36.411Z,0.77
2022-08-30T06:36:15.916Z,1.20
2022-08-30T06:38:42.576Z,0.70
2022-08-30T06:41:12.484Z,1.00
2022-08-30T06:43:39.137Z,0.73
2022-08-30T06:46:09.759Z,0.80
2022-08-30T06:48:36.465Z,0.90
2022-08-30T06:51:03.676Z,0.70
2022-08-30T06:53:30.886Z,0.82
2022-08-30T06:56:00.922Z,0.90
2022-08-30T06:58:28.810Z,0.70
2022-08-30T07:00:55.587Z,1.00
2022-08-30T07:03:22.334Z,0.77
2022-08-30T07:05:49.591Z,0.85
2022-08-30T07:08:17.896Z,1.25
2022-08-30T07:10:45.442Z,0.95
2022-08-30T07:13:12.721Z,0.95
2022-08-30T07:15:43.149Z,0.60
2022-08-30T07:18:31.897Z,0.80
2022-08-30T07:20:59.483Z,0.82
2022-08-30T07:23:26.130Z,0.80
2022-08-30T07:25:52.751Z,0.80
2022-08-30T07:28:19.474Z,0.80
2022-08-30T07:30:46.132Z,0.80
2022-08-30T07:33:12.990Z,0.60
2022-08-30T07:35:39.758Z,0.80
2022-08-30T07:38:06.429Z,0.90
2022-08-30T07:40:33.132Z,0.98
2022-08-30T07:43:02.202Z,0.80
2022-08-30T07:45:28.828Z,0.70
2022-08-30T07:47:55.429Z,0.80
2022-08-30T07:50:22.406Z,1.00
2022-08-30T07:52:49.009Z,0.90
2022-08-30T07:55:16.458Z,1.05
2022-08-30T07:57:43.291Z,1.10
2022-08-30T08:00:10.388Z,1.10
2022-08-30T08:02:37.350Z,1.17
2022-08-30T08:05:05.326Z,1.13
2022-08-30T08:07:32.285Z,1.45
2022-08-30T08:09:58.875Z,1.40
2022-08-30T08:12:25.648Z,1.30
2022-08-30T08:14:52.790Z,1.70
2022-08-30T08:17:19.474Z,1.48
2022-08-30T08:19:46.109Z,1.50
2022-08-30T08:22:20.873Z,2.03
2022-08-30T08:24:48.585Z,1.65
2022-08-30T08:27:15.390Z,1.60
2022-08-30T08:29:42.238Z,1.42
2022-08-30T08:32:08.886Z,1.90
2022-08-30T08:34:35.931Z,1.75
2022-08-30T08:37:02.683Z,1.40
2022-08-30T08:39:29.291Z,1.58
2022-08-30T08:42:17.022Z,1.95
2022-08-30T08:45:11.565Z,1.60
2022-08-30T08:47:42.212Z,1.70
2022-08-30T08:50:17.458Z,1.50
2022-08-30T08:53:20.560Z,1.73
2022-08-30T08:55:57.820Z,1.80
2022-08-30T08:58:29.301Z,1.75
2022-08-30T09:00:57.507Z,1.85
2022-08-30T09:03:26.423Z,1.77
2022-08-30T09:05:53.981Z,1.67
2022-08-30T09:08:21.868Z,1.75
2022-08-30T09:11:03.561Z,1.55
2022-08-30T09:13:30.193Z,1.50
2022-08-30T09:15:59.572Z,1.63
2022-08-30T09:18:54.857Z,1.50
2022-08-30T09:21:25.057Z,2.10
2022-08-30T09:23:57.457Z,1.63
2022-08-30T09:26:37.741Z,1.63
2022-08-30T09:29:05.843Z,1.40
2022-08-30T09:31:46.734Z,1.35
2022-08-30T09:34:19.077Z,1.40
2022-08-30T09:36:53.667Z,1.50
2022-08-30T09:39:27.938Z,1.40
2022-08-30T09:41:55.090Z,1.63
2022-08-30T09:44:24.595Z,1.70
2022-08-30T09:46:59.481Z,1.63
2022-08-30T09:49:30.566Z,1.95
2022-08-30T09:52:17.037Z,2.45
2022-08-30T09:55:23.776Z,2.03
2022-08-30T09:57:57.994Z,2.00
2022-08-30T10:00:31.391Z,2.13
2022-08-30T10:03:34.814Z,2.08
2022-08-30T10:06:14.362Z,2.33
2022-08-30T10:09:21.058Z,2.78
2022-08-30T10:12:06.288Z,2.38
2022-08-30T10:14:35.798Z,2.72
2022-08-30T10:17:09.199Z,2.78
2022-08-30T10:19:49.763Z,2.78
2022-08-30T10:22:19.745Z,2.70
2022-08-30T10:25:01.215Z,2.83
2022-08-30T10:27:36.887Z,2.40
2022-08-30T10:30:13.835Z,2.22
2022-08-30T10:33:03.853Z,2.50
2022-08-30T10:35:38.607Z,2.67
2022-08-30T10:38:37.372Z,2.22
2022-08-30T10:41:19.299Z,2.40
2022-08-30T10:43:58.882Z,2.10
2022-08-30T10:46:48.375Z,1.50
2022-08-30T10:49:28.920Z,1.70
2022-08-30T10:52:12.447Z,1.88
2022-08-30T10:54:48.510Z,1.52
2022-08-30T10:57:15.156Z,1.67
2022-08-30T10:59:46.666Z,1.45
2022-08-30T11:02:39.600Z,1.25
2022-08-30T11:05:17.550Z,1.33
2022-08-30T11:08:08.335Z,1.48
2022-08-30T11:11:32.839Z,1.40
2022-08-30T11:14:05.714Z,1.23
2022-08-30T11:16:39.933Z,1.42
2022-08-30T11:21:42.270Z,1.45
2022-08-30T11:24:29.106Z,1.40
2022-08-30T11:26:59.166Z,0.95
2022-08-30T11:29:34.538Z,1.45
2022-08-30T11:32:13.471Z,1.35
2022-08-30T11:34:49.384Z,1.25
2022-08-30T11:37:42.956Z,1.30
2022-08-30T11:40:20.089Z,1.50
2022-08-30T11:42:49.438Z,1.70
2022-08-30T11:45:22.279Z,1.10
2022-08-30T11:47:59.875Z,1.40
2022-08-30T11:50:52.656Z,1.52
2022-08-30T11:53:30.783Z,1.40
2022-08-30T11:56:21.324Z,1.50
2022-08-30T11:58:55.683Z,1.52
2022-08-30T12:01:46.912Z,1.60
2022-08-30T12:04:21.491Z,1.40
2022-08-30T12:07:05.547Z,1.20
2022-08-30T12:09:35.259Z,1.50
2022-08-30T12:12:10.827Z,1.20
2022-08-30T12:18:03.515Z,1.52
2022-08-30T12:20:43.326Z,1.33
2022-08-30T12:23:23.354Z,1.42
2022-08-30T12:25:50.952Z,1.60
2022-08-30T12:28:24.138Z,1.63
2022-08-30T12:30:51.781Z,1.33
2022-08-30T12:33:39.520Z,1.30
2022-08-30T12:36:31.996Z,1.40
2022-08-30T12:39:23.940Z,1.25
2022-08-30T12:41:50.606Z,1.17
2022-08-30T12:44:25.927Z,1.50
2022-08-30T12:47:01.202Z,1.23
2022-08-30T12:49:33.118Z,1.35
2022-08-30T12:52:26.747Z,1.27
2022-08-30T12:54:54.953Z,1.20
2022-08-30T12:58:09.460Z,1.30
2022-08-30T13:00:42.705Z,1.40
2022-08-30T13:03:36.627Z,1.30
2022-08-30T13:06:07.385Z,1.45
2022-08-30T13:08:45.654Z,1.58
2022-08-30T13:11:24.969Z,1.65
2022-08-30T13:13:58.342Z,1.40
2022-08-30T13:16:36.388Z,1.13
2022-08-30T13:19:27.460Z,1.40
2022-08-30T13:21:55.994Z,1.20
2022-08-30T13:24:25.520Z,1.30
2022-08-30T13:26:57.859Z,1.35
2022-08-30T13:29:28.282Z,1.60
2022-08-30T13:31:55.798Z,1.52
2022-08-30T13:34:23.500Z,1.30
2022-08-30T13:36:54.011Z,1.30
2022-08-30T13:39:21.846Z,1.40
2022-08-30T13:41:49.827Z,1.30
2022-08-30T13:44:18.567Z,1.30
2022-08-30T13:46:54.000Z,1.63
2022-08-30T13:52:22.323Z,1.30
2022-08-30T13:54:51.884Z,1.30
2022-08-30T14:00:12.863Z,1.50
2022-08-30T14:02:46.375Z,1.60
2022-08-30T14:05:37.624Z,1.42
2022-08-30T14:08:03.158Z,1.35
2022-08-30T14:10:31.681Z,1.58
2022-08-30T14:13:07.820Z,1.30
2022-08-30T14:15:38.754Z,1.20
2022-08-30T14:18:06.293Z,1.33
2022-08-30T14:20:33.320Z,1.42
2022-08-30T14:23:00.024Z,1.23
2022-08-30T14:25:28.738Z,1.20
2022-08-30T14:27:56.286Z,1.33
2022-08-30T14:30:23.562Z,1.38
2022-08-30T14:32:50.243Z,1.17
2022-08-30T14:35:19.342Z,1.20
2022-08-30T14:37:49.741Z,1.23
2022-08-30T14:40:17.363Z,1.27
2022-08-30T14:42:44.554Z,1.20
2022-08-30T14:45:11.767Z,1.40
2022-08-30T14:47:38.843Z,1.27
2022-08-30T14:50:06.462Z,1.08
2022-08-30T14:52:33.790Z,1.33
2022-08-30T14:55:08.609Z,1.38
2022-08-30T14:57:36.379Z,1.42
2022-08-30T15:00:10.770Z,1.40
2022-08-30T15:02:37.874Z,1.48
2022-08-30T15:05:06.930Z,1.30
2022-08-30T15:07:35.613Z,1.25
2022-08-30T15:10:03.221Z,1.33
2022-08-30T15:12:29.869Z,1.20
2022-08-30T15:14:56.468Z,1.13
2022-08-30T15:17:23.145Z,1.45
2022-08-30T15:19:49.793Z,1.17
2022-08-30T15:22:17.042Z,1.52
2022-08-30T15:24:44.119Z,1.30
2022-08-30T15:27:15.899Z,1.35
2022-08-30T15:29:42.605Z,1.30
2022-08-30T15:32:09.266Z,1.48
2022-08-30T15:34:36.029Z,1.25
2022-08-30T15:37:02.912Z,1.20
2022-08-30T15:39:31.270Z,1.20
2022-08-30T15:42:00.947Z,1.40
2022-08-30T15:44:29.962Z,1.50
2022-08-30T15:46:56.872Z,1.38
2022-08-30T15:49:24.233Z,1.27
2022-08-30T15:51:53.133Z,1.25
2022-08-30T15:54:23.344Z,1.10
2022-08-30T15:56:50.181Z,1.30
2022-08-30T15:59:17.646Z,1.30
2022-08-30T16:01:45.421Z,1.15
2022-08-30T16:04:14.635Z,1.20
2022-08-30T16:06:41.802Z,1.20
2022-08-30T16:09:09.894Z,1.20
2022-08-30T16:11:37.414Z,1.27
2022-08-30T16:14:05.555Z,1.00
2022-08-30T16:16:32.577Z,1.02
2022-08-30T16:18:59.520Z,1.10
2022-08-30T16:21:31.339Z,1.30
2022-08-30T16:24:01.504Z,1.35
2022-08-30T16:26:30.007Z,1.30
2022-08-30T16:28:57.003Z,1.20
2022-08-30T16:31:24.731Z,1.38
2022-08-30T16:33:53.114Z,1.80
2022-08-30T16:36:22.666Z,1.40
2022-08-30T16:38:49.782Z,1.10
2022-08-30T16:41:22.322Z,1.17
2022-08-30T16:43:53.487Z,1.17
2022-08-30T16:46:23.233Z,1.38
2022-08-30T16:48:53.617Z,1.40
2022-08-30T16:51:22.746Z,1.45
2022-08-30T16:53:49.501Z,1.40
2022-08-30T16:56:19.077Z,1.50
2022-08-30T16:58:46.701Z,1.45
2022-08-30T17:01:14.168Z,1.35
2022-08-30T17:03:41.342Z,1.50
2022-08-30T17:06:08.306Z,1.17
2022-08-30T17:08:35.044Z,1.42
2022-08-30T17:11:01.721Z,1.40
2022-08-30T17:13:28.676Z,1.40
2022-08-30T17:15:56.732Z,1.30
2022-08-30T17:18:23.938Z,1.40
2022-08-30T17:20:50.646Z,1.55
2022-08-30T17:23:17.891Z,1.60
2022-08-30T17:25:47.408Z,1.48
2022-08-30T17:28:14.019Z,1.70
2022-08-30T17:30:40.654Z,1.80
2022-08-30T17:33:08.270Z,1.25
2022-08-30T17:35:35.050Z,1.60
2022-08-30T17:38:01.670Z,1.67
2022-08-30T17:40:28.370Z,1.48
2022-08-30T17:42:55.255Z,1.70
2022-08-30T17:45:21.974Z,1.35
2022-08-30T17:47:48.783Z,1.60
2022-08-30T17:50:16.314Z,1.70
2022-08-30T17:52:46.354Z,1.30
2022-08-30T17:55:13.634Z,1.42
2022-08-30T17:57:41.960Z,1.50
2022-08-30T18:00:11.424Z,1.45
2022-08-30T18:02:42.668Z,1.40
2022-08-30T18:05:10.572Z,1.67
2022-08-30T18:07:37.401Z,1.50
2022-08-30T18:10:04.988Z,1.70
2022-08-30T18:12:31.684Z,1.70
2022-08-30T18:15:00.674Z,1.83
2022-08-30T18:17:28.394Z,1.75
2022-08-30T18:19:55.082Z,1.30
2022-08-30T18:22:24.407Z,1.77
2022-08-30T18:24:51.347Z,1.50
2022-08-30T18:27:18.102Z,1.58
2022-08-30T18:29:44.760Z,1.50
2022-08-30T18:32:11.606Z,1.60
2022-08-30T18:34:40.337Z,1.73
2022-08-30T18:37:11.280Z,1.75
2022-08-30T18:39:38.327Z,1.70
2022-08-30T18:42:06.365Z,1.85
2022-08-30T18:44:33.926Z,1.58
2022-08-30T18:47:03.655Z,2.00
2022-08-30T18:49:32.160Z,1.35
2022-08-30T18:52:00.542Z,1.52
2022-08-30T18:54:27.646Z,1.90
2022-08-30T18:56:54.406Z,1.45
2022-08-30T18:59:21.467Z,1.70
2022-08-30T19:01:49.697Z,1.85
2022-08-30T19:04:29.557Z,1.45
2022-08-30T19:07:02.309Z,1.60
2022-08-30T19:09:28.970Z,1.80
2022-08-30T19:11:55.665Z,1.50
2022-08-30T19:14:22.345Z,1.73
2022-08-30T19:16:48.987Z,1.50
2022-08-30T19:19:16.107Z,1.45
2022-08-30T19:21:42.902Z,1.67
2022-08-30T19:24:09.918Z,2.15
2022-08-30T19:26:38.504Z,1.55
2022-08-30T19:29:08.394Z,1.67
2022-08-30T19:31:37.427Z,1.52
2022-08-30T19:34:05.920Z,1.40
2022-08-30T19:36:32.638Z,1.10
2022-08-30T19:38:59.338Z,1.50
2022-08-30T19:41:26.162Z,1.50
2022-08-30T19:43:52.970Z,1.40
2022-08-30T19:46:19.879Z,1.40
2022-08-30T19:48:46.509Z,1.30
2022-08-30T19:51:15.055Z,1.77
2022-08-30T19:53:42.380Z,1.45
2022-08-30T19:56:09.047Z,1.30
2022-08-30T19:58:36.040Z,1.42
2022-08-30T20:01:11.608Z,1.30
2022-08-30T20:03:39.870Z,1.50
2022-08-30T20:06:07.414Z,2.10
2022-08-30T20:08:34.264Z,1.10
2022-08-30T20:11:04.536Z,1.33
2022-08-30T20:13:34.329Z,1.27
2022-08-30T20:16:01.619Z,1.35
2022-08-30T20:18:29.049Z,1.45
2022-08-30T20:20:56.346Z,1.50
2022-08-30T20:23:25.262Z,1.30
2022-08-30T20:25:54.526Z,1.40
2022-08-30T20:28:23.378Z,1.50
2022-08-30T20:30:50.666Z,1.40
2022-08-30T20:33:18.542Z,1.67
2022-08-30T20:35:49.035Z,1.35
2022-08-30T20:38:23.815Z,1.50
2022-08-30T20:43:28.134Z,1.15
2022-08-30T20:45:55.527Z,1.40
2022-08-30T20:48:23.171Z,1.25
2022-08-30T20:50:50.019Z,1.95
2022-08-30T20:53:16.701Z,1.30
2022-08-30T20:55:45.529Z,1.20
2022-08-30T20:58:12.860Z,1.33
2022-08-30T21:00:39.765Z,1.30
2022-08-30T21:03:08.348Z,1.50
2022-08-30T21:05:54.163Z,1.30
2022-08-30T21:08:20.839Z,1.35
2022-08-30T21:10:50.667Z,1.45
2022-08-30T21:13:17.337Z,1.40
2022-08-30T21:15:46.185Z,1.15
2022-08-30T21:18:16.415Z,1.15
2022-08-30T21:20:44.270Z,1.10
2022-08-30T21:23:10.967Z,1.40
2022-08-30T21:25:44.006Z,1.30
2022-08-30T21:28:11.014Z,1.20
2022-08-30T21:30:37.785Z,1.20
2022-08-30T21:33:06.120Z,1.30
2022-08-30T21:36:11.222Z,1.00
2022-08-30T21:38:39.421Z,1.30
2022-08-30T21:41:06.199Z,1.20
2022-08-30T21:43:32.836Z,1.20
2022-08-30T21:46:05.185Z,1.30
2022-08-30T21:48:32.016Z,1.30
2022-08-30T21:51:09.007Z,1.10
2022-08-30T21:53:36.098Z,1.25
2022-08-30T21:56:21.911Z,1.63
2022-08-30T21:58:49.564Z,1.30
2022-08-30T22:01:19.837Z,1.20
2022-08-30T22:03:48.781Z,1.33
2022-08-30T22:06:16.144Z,1.30
2022-08-30T22:08:44.936Z,1.58
2022-08-30T22:11:14.552Z,1.63
2022-08-30T22:13:43.411Z,1.30
2022-08-30T22:16:11.508Z,1.05
2022-08-30T22:18:42.414Z,1.40
2022-08-30T22:21:10.838Z,1.45
2022-08-30T22:23:40.978Z,1.30
2022-08-30T22:26:09.670Z,2.00
2022-08-30T22:28:36.781Z,1.30
2022-08-30T22:31:09.080Z,1.45
2022-08-30T22:33:36.661Z,1.42
2022-08-30T22:36:37.993Z,1.77
2022-08-30T22:39:07.329Z,1.30
2022-08-30T22:41:34.498Z,1.40
2022-08-30T22:44:02.468Z,1.58
2022-08-30T22:46:29.582Z,1.20
2022-08-30T22:49:02.806Z,1.58
2022-08-30T22:51:29.459Z,1.40
2022-08-30T22:53:56.199Z,1.48
2022-08-30T22:56:25.005Z,1.60
2022-08-30T22:58:52.221Z,1.35
2022-08-30T23:01:29.141Z,1.63
2022-08-30T23:03:56.899Z,1.33
2022-08-30T23:06:26.135Z,1.60
2022-08-30T23:08:53.105Z,1.50
2022-08-30T23:11:20.837Z,1.58
2022-08-30T23:13:47.952Z,1.52
2022-08-30T23:16:16.028Z,1.60
2022-08-30T23:18:44.573Z,1.45
2022-08-30T23:21:14.098Z,1.67
2022-08-30T23:23:59.982Z,1.73
2022-08-30T23:26:45.286Z,1.55
2022-08-30T23:29:31.071Z,1.67
2022-08-30T23:32:16.862Z,1.40
2022-08-30T23:35:02.234Z,1.58
2022-08-30T23:37:47.677Z,1.60
2022-08-30T23:40:37.773Z,2.25
2022-08-30T23:43:22.986Z,1.75
2022-08-30T23:46:08.577Z,1.77
2022-08-30T23:48:53.947Z,2.00
2022-08-30T23:51:39.428Z,1.75
2022-08-30T23:54:27.903Z,1.98
2022-08-30T23:57:13.214Z,1.60
2022-08-30T23:59:58.549Z,1.60
